createdAt,value
2023-04-06T00:02:04.839Z,8.40
2023-04-06T00:04:32.630Z,7.68
2023-04-06T00:07:00.624Z,9.00
2023-04-06T00:09:29.942Z,9.25
2023-04-06T00:11:58.754Z,8.52
2023-04-06T00:14:26.611Z,8.05
2023-04-06T00:16:54.427Z,6.90
2023-04-06T00:19:22.409Z,8.05
2023-04-06T00:21:50.255Z,7.35
2023-04-06T00:24:18.049Z,8.25
2023-04-06T00:26:47.187Z,7.63
2023-04-06T00:29:14.998Z,8.23
2023-04-06T00:31:42.813Z,7.88
2023-04-06T00:34:11.778Z,8.13
2023-04-06T00:36:39.524Z,8.70
2023-04-06T00:39:07.650Z,7.25
2023-04-06T00:41:35.706Z,8.27
2023-04-06T00:44:04.906Z,7.20
2023-04-06T00:46:32.813Z,9.30
2023-04-06T00:49:00.646Z,8.75
2023-04-06T00:51:28.615Z,7.35
2023-04-06T00:53:56.407Z,9.15
2023-04-06T00:56:24.676Z,8.88
2023-04-06T00:58:52.756Z,8.00
2023-04-06T01:01:22.090Z,7.45
2023-04-06T01:03:51.320Z,9.18
2023-04-06T01:06:19.203Z,7.63
2023-04-06T01:08:47.118Z,8.52
2023-04-06T01:11:14.899Z,8.10
2023-04-06T01:13:42.688Z,8.20
2023-04-06T01:16:10.891Z,8.32
2023-04-06T01:18:40.609Z,7.53
2023-04-06T01:21:09.663Z,8.40
2023-04-06T01:23:38.863Z,7.93
2023-04-06T01:26:06.848Z,7.85
2023-04-06T01:28:34.673Z,8.30
2023-04-06T01:31:02.538Z,8.70
2023-04-06T01:33:30.456Z,8.48
2023-04-06T01:35:58.389Z,9.02
2023-04-06T01:38:26.675Z,8.70
2023-04-06T01:40:56.014Z,7.78
2023-04-06T01:43:23.932Z,8.45
2023-04-06T01:45:52.019Z,9.00
2023-04-06T01:48:19.810Z,7.85
2023-04-06T01:50:47.618Z,7.65
2023-04-06T01:53:15.531Z,7.68
2023-04-06T01:55:43.317Z,8.75
2023-04-06T01:58:12.440Z,8.10
2023-04-06T02:00:40.374Z,8.75
2023-04-06T02:03:08.194Z,7.80
2023-04-06T02:05:38.819Z,7.53
2023-04-06T02:08:07.012Z,7.97
2023-04-06T02:10:35.358Z,7.70
2023-04-06T02:13:03.341Z,7.78
2023-04-06T02:15:32.484Z,7.85
2023-04-06T02:18:01.708Z,8.85
2023-04-06T02:20:29.643Z,8.10
2023-04-06T02:22:58.892Z,8.90
2023-04-06T02:25:27.467Z,8.05
2023-04-06T02:27:55.306Z,7.35
2023-04-06T02:30:23.076Z,8.23
2023-04-06T02:32:52.361Z,8.55
2023-04-06T02:35:20.556Z,7.72
2023-04-06T02:37:48.407Z,7.40
2023-04-06T02:40:16.401Z,7.78
2023-04-06T02:42:44.235Z,7.38
2023-04-06T02:45:12.280Z,6.57
2023-04-06T02:47:40.174Z,8.77
2023-04-06T02:50:10.149Z,8.13
2023-04-06T02:52:37.958Z,7.03
2023-04-06T02:55:08.478Z,8.95
2023-04-06T02:57:36.291Z,7.88
2023-04-06T03:00:04.485Z,7.22
2023-04-06T03:02:32.266Z,10.10
2023-04-06T03:05:00.041Z,9.15
2023-04-06T03:07:29.307Z,7.82
2023-04-06T03:09:57.181Z,6.72
2023-04-06T03:12:25.122Z,6.38
2023-04-06T03:14:53.060Z,7.60
2023-04-06T03:17:20.861Z,7.75
2023-04-06T03:19:48.579Z,9.57
2023-04-06T03:22:16.637Z,8.68
2023-04-06T03:24:45.830Z,9.63
2023-04-06T03:27:13.707Z,8.35
2023-04-06T03:29:41.497Z,8.55
2023-04-06T03:32:11.067Z,9.10
2023-04-06T03:34:40.386Z,8.48
2023-04-06T03:37:10.636Z,9.10
2023-04-06T03:39:38.796Z,9.20
2023-04-06T03:42:08.039Z,9.13
2023-04-06T03:44:36.008Z,8.45
2023-04-06T03:47:03.995Z,8.90
2023-04-06T03:49:31.823Z,7.97
2023-04-06T03:51:59.610Z,7.05
2023-04-06T03:54:27.369Z,7.93
2023-04-06T03:56:56.055Z,7.70
2023-04-06T03:59:25.517Z,7.20
2023-04-06T04:01:53.356Z,8.10
2023-04-06T04:04:21.288Z,8.07
2023-04-06T04:06:49.179Z,8.57
2023-04-06T04:09:16.969Z,7.57
2023-04-06T04:11:44.720Z,7.65
2023-04-06T04:14:12.462Z,6.05
2023-04-06T04:16:42.734Z,6.97
2023-04-06T04:19:11.160Z,6.53
2023-04-06T04:21:45.096Z,6.13
2023-04-06T04:24:12.941Z,6.95
2023-04-06T04:26:41.900Z,6.10
2023-04-06T04:29:09.967Z,5.57
2023-04-06T04:31:38.034Z,5.38
2023-04-06T04:34:07.884Z,6.30
2023-04-06T04:36:35.757Z,5.97
2023-04-06T04:39:03.668Z,6.25
2023-04-06T04:41:31.868Z,6.60
2023-04-06T04:43:59.698Z,6.57
2023-04-06T04:46:27.556Z,6.63
2023-04-06T04:48:55.474Z,5.88
2023-04-06T04:51:25.624Z,5.35
2023-04-06T04:53:53.524Z,5.70
2023-04-06T04:56:21.285Z,5.40
2023-04-06T04:58:49.021Z,6.10
2023-04-06T05:01:16.874Z,5.53
2023-04-06T05:03:44.716Z,5.88
2023-04-06T05:06:13.531Z,5.20
2023-04-06T05:08:43.120Z,5.03
2023-04-06T05:11:11.195Z,5.57
2023-04-06T05:13:39.269Z,5.22
2023-04-06T05:16:07.858Z,4.25
2023-04-06T05:18:35.853Z,5.90
2023-04-06T05:21:03.695Z,4.85
2023-04-06T05:23:31.484Z,5.22
2023-04-06T05:26:01.092Z,4.70
2023-04-06T05:28:28.869Z,5.07
2023-04-06T05:30:57.821Z,5.28
2023-04-06T05:33:26.127Z,4.40
2023-04-06T05:35:53.987Z,5.18
2023-04-06T05:38:22.166Z,4.18
2023-04-06T05:40:50.073Z,4.40
2023-04-06T05:43:21.091Z,4.93
2023-04-06T05:45:50.246Z,5.28
2023-04-06T05:48:18.053Z,5.38
2023-04-06T05:50:50.482Z,5.13
2023-04-06T05:53:18.294Z,4.32
2023-04-06T05:55:46.064Z,5.20
2023-04-06T05:58:13.852Z,4.20
2023-04-06T06:00:43.572Z,5.25
2023-04-06T06:03:12.027Z,4.88
2023-04-06T06:05:39.995Z,3.63
2023-04-06T06:08:08.006Z,4.53
2023-04-06T06:10:35.760Z,4.05
2023-04-06T06:13:03.594Z,4.22
2023-04-06T06:15:31.533Z,3.88
2023-04-06T06:18:01.385Z,4.00
2023-04-06T06:20:29.341Z,3.67
2023-04-06T06:22:57.145Z,4.50
2023-04-06T06:25:25.121Z,4.25
2023-04-06T06:27:52.886Z,4.55
2023-04-06T06:30:23.053Z,3.88
2023-04-06T06:32:51.987Z,3.22
2023-04-06T06:35:21.282Z,3.63
2023-04-06T06:37:49.187Z,3.90
2023-04-06T06:40:18.940Z,4.15
2023-04-06T06:42:46.800Z,3.22
2023-04-06T06:45:14.656Z,3.70
2023-04-06T06:47:42.777Z,3.47
2023-04-06T06:50:10.984Z,3.70
2023-04-06T06:52:40.778Z,3.25
2023-04-06T06:55:09.808Z,3.47
2023-04-06T06:57:37.667Z,4.43
2023-04-06T07:00:06.419Z,4.15
2023-04-06T07:02:34.297Z,4.15
2023-04-06T07:05:04.411Z,4.65
2023-04-06T07:07:35.871Z,3.80
2023-04-06T07:10:05.586Z,3.72
2023-04-06T07:12:35.865Z,3.85
2023-04-06T07:15:03.846Z,3.20
2023-04-06T07:17:31.680Z,3.20
2023-04-06T07:19:59.442Z,3.30
2023-04-06T07:22:27.367Z,2.80
2023-04-06T07:24:55.827Z,3.45
2023-04-06T07:27:25.001Z,3.83
2023-04-06T07:29:52.797Z,3.58
2023-04-06T07:32:20.674Z,2.90
2023-04-06T07:34:48.464Z,3.22
2023-04-06T07:37:16.309Z,3.08
2023-04-06T07:39:44.068Z,3.25
2023-04-06T07:42:12.436Z,3.67
2023-04-06T07:44:41.646Z,4.15
2023-04-06T07:47:09.461Z,3.58
2023-04-06T07:49:37.263Z,3.17
2023-04-06T07:52:05.463Z,3.35
2023-04-06T07:54:33.355Z,3.35
2023-04-06T07:57:01.105Z,4.00
2023-04-06T07:59:28.943Z,3.35
2023-04-06T08:01:58.087Z,3.80
2023-04-06T08:04:26.034Z,3.17
2023-04-06T08:06:53.883Z,3.47
2023-04-06T08:09:21.698Z,3.45
2023-04-06T08:11:49.724Z,3.53
2023-04-06T08:14:17.790Z,3.97
2023-04-06T08:16:45.648Z,3.83
2023-04-06T08:19:18.103Z,3.28
2023-04-06T08:21:46.796Z,3.40
2023-04-06T08:24:14.665Z,3.60
2023-04-06T08:26:43.315Z,3.00
2023-04-06T08:29:11.282Z,2.97
2023-04-06T08:31:39.318Z,3.10
2023-04-06T08:34:09.515Z,3.20
2023-04-06T08:36:39.960Z,3.03
2023-04-06T08:39:07.777Z,3.00
2023-04-06T08:41:36.621Z,2.63
2023-04-06T08:44:05.910Z,3.47
2023-04-06T08:46:33.943Z,2.85
2023-04-06T08:49:03.361Z,3.42
2023-04-06T08:51:32.099Z,2.80
2023-04-06T08:54:02.160Z,2.63
2023-04-06T08:56:30.484Z,2.80
2023-04-06T08:58:59.219Z,2.90
2023-04-06T09:01:28.974Z,2.67
2023-04-06T09:03:59.762Z,2.42
2023-04-06T09:06:28.786Z,2.20
2023-04-06T09:08:57.936Z,2.67
2023-04-06T09:11:27.329Z,2.60
2023-04-06T09:13:57.135Z,2.42
2023-04-06T09:16:25.492Z,2.30
2023-04-06T09:18:53.395Z,1.60
2023-04-06T09:21:25.337Z,2.08
2023-04-06T09:24:01.606Z,1.80
2023-04-06T09:26:31.714Z,1.92
2023-04-06T09:29:02.090Z,1.77
2023-04-06T09:31:31.544Z,1.92
2023-04-06T09:33:59.509Z,1.80
2023-04-06T09:36:34.335Z,1.80
2023-04-06T09:39:04.710Z,2.03
2023-04-06T09:41:35.331Z,2.08
2023-04-06T09:44:07.639Z,1.50
2023-04-06T09:46:50.626Z,1.67
2023-04-06T09:49:24.835Z,1.60
2023-04-06T09:51:58.068Z,1.52
2023-04-06T09:54:30.743Z,1.33
2023-04-06T09:57:06.419Z,1.45
2023-04-06T09:59:44.237Z,2.08
2023-04-06T10:02:32.113Z,1.35
2023-04-06T10:05:07.730Z,1.83
2023-04-06T10:07:38.771Z,1.77
2023-04-06T10:10:13.598Z,2.15
2023-04-06T10:12:43.783Z,2.30
2023-04-06T10:15:12.654Z,2.50
2023-04-06T10:17:40.532Z,2.00
2023-04-06T10:20:13.504Z,2.30
2023-04-06T10:22:51.677Z,2.25
2023-04-06T10:25:19.457Z,2.17
2023-04-06T10:27:48.734Z,2.20
2023-04-06T10:30:18.417Z,1.88
2023-04-06T10:32:48.159Z,1.73
2023-04-06T10:35:17.854Z,1.95
2023-04-06T10:37:51.736Z,1.83
2023-04-06T10:40:26.640Z,2.55
2023-04-06T10:42:56.495Z,2.70
2023-04-06T10:45:25.838Z,2.13
2023-04-06T10:47:55.644Z,2.03
2023-04-06T10:50:24.374Z,2.40
2023-04-06T10:53:01.656Z,2.13
2023-04-06T10:55:30.415Z,2.42
2023-04-06T10:57:59.600Z,1.92
2023-04-06T11:00:36.076Z,2.20
2023-04-06T11:03:11.226Z,1.60
2023-04-06T11:05:39.108Z,2.55
2023-04-06T11:08:07.559Z,2.22
2023-04-06T11:10:35.385Z,2.30
2023-04-06T11:13:06.730Z,1.85
2023-04-06T11:15:38.243Z,2.10
2023-04-06T11:18:07.377Z,2.63
2023-04-06T11:20:35.256Z,1.70
2023-04-06T11:23:04.628Z,1.95
2023-04-06T11:25:33.617Z,2.28
2023-04-06T11:28:01.641Z,1.88
2023-04-06T11:30:31.354Z,2.20
2023-04-06T11:33:03.649Z,1.80
2023-04-06T11:35:34.667Z,1.88
2023-04-06T11:38:05.295Z,2.28
2023-04-06T11:40:34.191Z,1.83
2023-04-06T11:43:01.998Z,1.45
2023-04-06T11:45:41.852Z,1.30
2023-04-06T11:48:20.181Z,1.50
2023-04-06T11:50:48.767Z,1.52
2023-04-06T11:53:16.648Z,1.50
2023-04-06T11:55:47.661Z,1.73
2023-04-06T11:58:16.038Z,1.80
2023-04-06T12:00:47.437Z,1.30
2023-04-06T12:03:16.078Z,1.42
2023-04-06T12:05:43.986Z,1.48
2023-04-06T12:08:11.750Z,1.20
2023-04-06T12:10:39.574Z,1.02
2023-04-06T12:13:07.508Z,1.00
2023-04-06T12:15:35.474Z,1.10
2023-04-06T12:18:04.790Z,0.95
2023-04-06T12:20:33.670Z,0.90
2023-04-06T12:23:01.535Z,0.98
2023-04-06T12:25:30.149Z,1.40
2023-04-06T12:27:58.930Z,1.13
2023-04-06T12:30:26.733Z,1.17
2023-04-06T12:32:54.674Z,1.10
2023-04-06T12:35:23.858Z,2.10
2023-04-06T12:37:51.797Z,1.10
2023-04-06T12:40:19.756Z,0.85
2023-04-06T12:42:47.833Z,1.35
2023-04-06T12:45:15.636Z,1.00
2023-04-06T12:47:43.545Z,0.95
2023-04-06T12:50:11.692Z,1.10
2023-04-06T12:52:40.907Z,1.10
2023-04-06T12:55:09.833Z,1.27
2023-04-06T12:57:38.107Z,1.00
2023-04-06T13:00:09.164Z,1.20
2023-04-06T13:02:37.937Z,1.42
2023-04-06T13:05:06.402Z,1.15
2023-04-06T13:07:34.245Z,1.55
2023-04-06T13:10:03.478Z,1.42
2023-04-06T13:12:31.245Z,1.50
2023-04-06T13:14:59.020Z,1.73
2023-04-06T13:17:29.530Z,1.83
2023-04-06T13:19:57.518Z,1.35
2023-04-06T13:22:25.663Z,1.15
2023-04-06T13:24:53.455Z,1.90
2023-04-06T13:27:22.663Z,1.55
2023-04-06T13:29:50.482Z,1.52
2023-04-06T13:32:18.386Z,1.58
2023-04-06T13:34:46.722Z,1.60
2023-04-06T13:37:15.042Z,1.33
2023-04-06T13:39:42.861Z,1.40
2023-04-06T13:42:11.073Z,1.42
2023-04-06T13:44:40.345Z,1.88
2023-04-06T13:47:08.250Z,1.27
2023-04-06T13:49:36.953Z,1.17
2023-04-06T13:52:04.946Z,1.42
2023-04-06T13:54:32.767Z,1.60
2023-04-06T13:57:01.493Z,1.13
2023-04-06T13:59:34.244Z,1.40
2023-04-06T14:02:03.604Z,1.45
2023-04-06T14:04:32.171Z,1.33
2023-04-06T14:07:00.431Z,1.17
2023-04-06T14:09:28.727Z,1.40
2023-04-06T14:11:57.323Z,1.67
2023-04-06T14:14:25.591Z,1.00
2023-04-06T14:16:53.384Z,1.20
2023-04-06T14:19:22.794Z,0.93
2023-04-06T14:21:50.521Z,1.05
2023-04-06T14:24:20.037Z,1.35
2023-04-06T14:26:47.829Z,1.10
2023-04-06T14:29:16.781Z,1.52
2023-04-06T14:31:44.625Z,1.92
2023-04-06T14:34:12.388Z,1.08
2023-04-06T14:36:41.487Z,1.20
2023-04-06T14:39:10.831Z,1.08
2023-04-06T14:41:38.634Z,1.23
2023-04-06T14:44:07.234Z,1.17
2023-04-06T14:46:35.009Z,1.25
2023-04-06T14:49:02.775Z,1.17
2023-04-06T14:51:30.523Z,2.05
2023-04-06T14:53:59.589Z,1.67
2023-04-06T14:56:27.435Z,2.67
2023-04-06T14:58:55.913Z,2.00
2023-04-06T15:01:23.663Z,1.10
2023-04-06T15:03:51.704Z,1.25
2023-04-06T15:06:21.508Z,1.23
2023-04-06T15:08:50.006Z,1.27
2023-04-06T15:11:19.195Z,1.67
2023-04-06T15:13:47.424Z,1.30
2023-04-06T15:16:16.215Z,1.33
2023-04-06T15:18:43.914Z,1.00
2023-04-06T15:21:12.792Z,2.00
2023-04-06T15:23:49.485Z,1.20
2023-04-06T15:26:17.269Z,0.88
2023-04-06T15:28:46.436Z,1.23
2023-04-06T15:31:32.955Z,1.27
2023-04-06T15:34:04.139Z,0.93
2023-04-06T15:36:31.960Z,1.00
2023-04-06T15:39:00.559Z,1.33
2023-04-06T15:41:28.901Z,0.98
2023-04-06T15:43:58.080Z,1.33
2023-04-06T15:46:28.483Z,1.08
2023-04-06T15:48:57.046Z,1.10
2023-04-06T15:51:25.259Z,1.95
2023-04-06T15:53:52.952Z,1.60
2023-04-06T15:56:20.963Z,1.30
2023-04-06T15:58:49.622Z,1.70
2023-04-06T16:01:20.038Z,1.73
2023-04-06T16:03:48.087Z,1.23
2023-04-06T16:06:16.044Z,1.65
2023-04-06T16:08:44.103Z,2.03
2023-04-06T16:11:12.034Z,1.42
2023-04-06T16:13:43.228Z,1.05
2023-04-06T16:16:12.913Z,1.02
2023-04-06T16:18:42.063Z,1.10
2023-04-06T16:21:09.790Z,1.95
2023-04-06T16:23:37.512Z,1.13
2023-04-06T16:26:12.852Z,1.40
2023-04-06T16:28:40.912Z,1.13
2023-04-06T16:31:08.652Z,1.02
2023-04-06T16:33:36.444Z,1.27
2023-04-06T16:36:05.978Z,1.25
2023-04-06T16:38:35.699Z,1.00
2023-04-06T16:41:03.916Z,1.20
2023-04-06T16:43:32.246Z,1.20
2023-04-06T16:46:00.026Z,1.10
2023-04-06T16:48:27.948Z,1.02
2023-04-06T16:50:56.344Z,1.63
2023-04-06T16:53:25.494Z,1.92
2023-04-06T16:55:53.223Z,1.27
2023-04-06T16:58:20.940Z,1.25
2023-04-06T17:00:48.761Z,1.08
2023-04-06T17:03:16.680Z,2.75
2023-04-06T17:05:45.331Z,1.40
2023-04-06T17:08:13.003Z,1.40
2023-04-06T17:13:14.680Z,2.67
2023-04-06T17:15:43.154Z,0.93
2023-04-06T17:18:11.558Z,2.35
2023-04-06T17:20:39.654Z,2.17
2023-04-06T17:23:07.401Z,1.08
2023-04-06T17:25:35.178Z,1.48
2023-04-06T17:28:04.326Z,1.30
2023-04-06T17:30:32.888Z,1.00
2023-04-06T17:33:00.881Z,2.15
2023-04-06T17:35:28.643Z,1.00
2023-04-06T17:37:56.308Z,3.20
2023-04-06T17:40:24.164Z,1.73
2023-04-06T17:42:51.990Z,2.00
2023-04-06T17:45:21.275Z,1.60
2023-04-06T17:47:49.024Z,1.45
2023-04-06T17:50:16.756Z,1.48
2023-04-06T17:55:13.506Z,1.50
2023-04-06T17:57:43.207Z,1.33
2023-04-06T18:00:12.228Z,1.25
2023-04-06T18:02:41.333Z,1.40
2023-04-06T18:05:09.750Z,0.80
2023-04-06T18:07:37.777Z,1.38
2023-04-06T18:10:06.683Z,2.15
2023-04-06T18:12:34.553Z,1.35
2023-04-06T18:15:02.534Z,1.63
2023-04-06T18:17:30.407Z,1.13
2023-04-06T18:19:59.483Z,1.10
2023-04-06T18:22:27.548Z,1.10
2023-04-06T18:24:55.251Z,1.23
2023-04-06T18:27:23.029Z,0.73
2023-04-06T18:29:50.985Z,1.08
2023-04-06T18:32:18.748Z,0.60
2023-04-06T18:34:46.442Z,0.95
2023-04-06T18:37:16.285Z,1.23
2023-04-06T18:39:44.219Z,1.58
2023-04-06T18:42:11.902Z,0.85
2023-04-06T18:44:39.679Z,1.10
2023-04-06T18:47:07.622Z,1.20
2023-04-06T18:49:35.388Z,0.70
2023-04-06T18:52:04.840Z,1.10
2023-04-06T18:54:33.917Z,1.17
2023-04-06T18:57:02.456Z,1.60
2023-04-06T18:59:31.632Z,2.50
2023-04-06T19:01:59.463Z,2.42
2023-04-06T19:04:29.287Z,2.33
2023-04-06T19:06:57.385Z,3.20
2023-04-06T19:09:25.397Z,2.65
2023-04-06T19:11:54.451Z,2.65
2023-04-06T19:14:22.199Z,1.80
2023-04-06T19:16:52.377Z,1.98
2023-04-06T19:19:21.077Z,2.50
2023-04-06T19:21:49.204Z,1.75
2023-04-06T19:24:16.982Z,1.55
2023-04-06T19:26:44.821Z,2.15
2023-04-06T19:29:15.024Z,1.58
2023-04-06T19:31:42.783Z,1.50
2023-04-06T19:34:11.110Z,1.35
2023-04-06T19:36:38.791Z,1.15
2023-04-06T19:39:06.520Z,1.48
2023-04-06T19:41:34.231Z,1.88
2023-04-06T19:44:01.992Z,2.78
2023-04-06T19:46:31.132Z,4.28
2023-04-06T19:48:59.086Z,3.47
2023-04-06T19:51:26.862Z,3.83
2023-04-06T19:53:54.574Z,3.90
2023-04-06T19:56:22.310Z,4.28
2023-04-06T19:58:50.153Z,3.13
2023-04-06T20:01:17.995Z,2.13
2023-04-06T20:03:47.348Z,1.80
2023-04-06T20:06:15.156Z,2.28
2023-04-06T20:08:43.003Z,2.08
2023-04-06T20:11:11.494Z,2.92
2023-04-06T20:13:39.248Z,2.30
2023-04-06T20:16:07.127Z,2.83
2023-04-06T20:18:35.128Z,2.70
2023-04-06T20:21:04.287Z,2.40
2023-04-06T20:23:34.839Z,1.58
2023-04-06T20:26:02.600Z,1.95
2023-04-06T20:28:30.341Z,1.23
2023-04-06T20:30:58.090Z,2.25
2023-04-06T20:33:25.814Z,1.48
2023-04-06T20:35:58.319Z,1.48
2023-04-06T20:38:33.271Z,1.13
2023-04-06T20:41:01.850Z,1.20
2023-04-06T20:43:30.231Z,1.35
2023-04-06T20:45:59.324Z,1.33
2023-04-06T20:48:27.349Z,1.52
2023-04-06T20:50:55.738Z,0.98
2023-04-06T20:53:23.793Z,1.33
2023-04-06T20:55:53.030Z,1.73
2023-04-06T20:58:21.004Z,1.38
2023-04-06T21:00:49.777Z,2.15
2023-04-06T21:03:18.068Z,2.05
2023-04-06T21:05:51.577Z,1.88
2023-04-06T21:08:19.437Z,1.65
2023-04-06T21:10:47.242Z,1.73
2023-04-06T21:13:16.732Z,2.08
2023-04-06T21:15:44.585Z,2.25
2023-04-06T21:18:12.680Z,3.20
2023-04-06T21:20:40.570Z,1.63
2023-04-06T21:23:08.289Z,1.45
2023-04-06T21:25:37.897Z,2.55
2023-04-06T21:28:06.058Z,11.23
2023-04-06T21:30:37.075Z,7.63
2023-04-06T21:33:04.979Z,4.53
2023-04-06T21:35:32.751Z,3.58
2023-04-06T21:38:00.628Z,3.13
2023-04-06T21:40:28.392Z,2.85
2023-04-06T21:42:56.164Z,2.67
2023-04-06T21:45:23.854Z,2.78
2023-04-06T21:47:52.982Z,4.40
2023-04-06T21:50:21.138Z,3.22
2023-04-06T21:52:49.337Z,3.10
2023-04-06T21:55:17.124Z,3.58
2023-04-06T21:57:45.354Z,3.88
2023-04-06T22:00:15.078Z,4.00
2023-04-06T22:02:43.190Z,3.17
2023-04-06T22:05:12.872Z,2.45
2023-04-06T22:07:40.760Z,3.05
2023-04-06T22:10:09.400Z,3.40
2023-04-06T22:12:37.206Z,2.95
2023-04-06T22:15:05.613Z,2.75
2023-04-06T22:17:33.447Z,2.53
2023-04-06T22:20:01.221Z,2.20
2023-04-06T22:22:30.314Z,2.33
2023-04-06T22:24:58.495Z,2.40
2023-04-06T22:27:26.345Z,2.00
2023-04-06T22:29:54.295Z,1.77
2023-04-06T22:32:22.071Z,1.88
2023-04-06T22:34:49.900Z,1.00
2023-04-06T22:37:17.627Z,2.35
2023-04-06T22:39:46.723Z,2.65
2023-04-06T22:42:14.476Z,2.17
2023-04-06T22:44:42.180Z,2.55
2023-04-06T22:47:09.962Z,2.60
2023-04-06T22:49:37.697Z,2.47
2023-04-06T22:52:05.421Z,1.55
2023-04-06T22:54:33.194Z,2.25
2023-04-06T22:57:02.968Z,1.00
2023-04-06T22:59:30.681Z,1.67
2023-04-06T23:01:58.510Z,1.67
2023-04-06T23:04:26.638Z,1.50
2023-04-06T23:06:54.569Z,1.83
2023-04-06T23:09:22.734Z,1.48
2023-04-06T23:11:50.446Z,1.45
2023-04-06T23:14:19.590Z,1.73
2023-04-06T23:16:47.336Z,1.25
2023-04-06T23:19:15.125Z,1.08
2023-04-06T23:21:42.986Z,1.30
2023-04-06T23:24:11.092Z,1.33
2023-04-06T23:26:38.784Z,1.85
2023-04-06T23:29:06.619Z,2.22
2023-04-06T23:31:35.854Z,1.15
2023-04-06T23:34:03.871Z,1.20
2023-04-06T23:36:32.895Z,1.73
2023-04-06T23:39:00.628Z,1.52
2023-04-06T23:41:28.311Z,1.42
2023-04-06T23:43:56.607Z,2.00
2023-04-06T23:46:24.612Z,2.25
2023-04-06T23:48:53.736Z,1.65
2023-04-06T23:51:21.584Z,2.17
2023-04-06T23:53:49.245Z,1.70
2023-04-06T23:56:16.914Z,2.00
2023-04-06T23:58:44.614Z,1.52
